Cherry Valley

*Note: All times are displayed in the local standard time of the station location.
**Rain - Equipment is designed to accurately record liquid precipitation; under conditions when precipitation is not in liquid form, the data displayed may not properly reflect rainfall values.

Date Max Temp
(°C)
Min Temp
(°C)
Avg Temp
(°C)
Rain (mm) Avg RH (%)
Thu, Nov 15, 2018 -0.1 -7.8 -2.5 0.0 80.4
Wed, Nov 14, 2018 -1.9 -8.0 -4.9 0.0 58.6
Tue, Nov 13, 2018 3.6 -3.0 0.5 2.6 84.9
Mon, Nov 12, 2018 6.8 -0.3 3.3 0.0 74.4
Sun, Nov 11, 2018 3.2 -4.3 -0.2 0.0 76.9
Sat, Nov 10, 2018 5.9 -0.5 1.6 0.0 69.7
Fri, Nov 09, 2018 6.0 -1.4 2.1 23.6 95.9
DateTime Avg Temp (°C) Rain (mm) RH (%)
Fri, Nov 16, 2018 07:00 -0.9 0.0 100.0
Fri, Nov 16, 2018 06:00 -0.7 0.0 100.0
Fri, Nov 16, 2018 05:00 -0.8 0.0 100.0
Fri, Nov 16, 2018 04:00 -0.6 0.0 100.0
Fri, Nov 16, 2018 03:00 -0.7 0.0 100.0
Fri, Nov 16, 2018 02:00 -0.7 0.0 100.0
Fri, Nov 16, 2018 01:00 -0.6 0.0 100.0
Fri, Nov 16, 2018 00:00 -0.5 0.0 100.0
Thu, Nov 15, 2018 23:00 -0.5 0.0 100.0
Thu, Nov 15, 2018 22:00 -0.8 0.0 100.0
Thu, Nov 15, 2018 21:00 -1.1 0.0 100.0
Thu, Nov 15, 2018 20:00 -1.3 0.0 100.0
Thu, Nov 15, 2018 19:00 -1.6 0.0 99.8
Thu, Nov 15, 2018 18:00 -0.8 0.0 85.3
Thu, Nov 15, 2018 17:00 -0.2 0.0 71.0
Thu, Nov 15, 2018 16:00 -0.2 0.0 68.5
Thu, Nov 15, 2018 15:00 -0.3 0.0 67.8
Thu, Nov 15, 2018 14:00 -0.5 0.0 63.3
Thu, Nov 15, 2018 13:00 -0.3 0.0 58.0
Thu, Nov 15, 2018 12:00 -0.5 0.0 61.0
Thu, Nov 15, 2018 11:00 -0.8 0.0 64.3
Thu, Nov 15, 2018 10:00 -1.5 0.0 69.0
Thu, Nov 15, 2018 09:00 -2.6 0.0 72.8
Thu, Nov 15, 2018 08:00 -4.0 0.0 79.5
Thu, Nov 15, 2018 07:00 -4.6 0.0 79.8
Thu, Nov 15, 2018 06:00 -5.3 0.0 81.0
Thu, Nov 15, 2018 05:00 -5.8 0.0 80.0
Thu, Nov 15, 2018 04:00 -6.1 0.0 81.0
Thu, Nov 15, 2018 03:00 -6.5 0.0 82.5
Thu, Nov 15, 2018 02:00 -7.1 0.0 84.5
Thu, Nov 15, 2018 01:00 -7.3 0.0 81.0
Thu, Nov 15, 2018 00:00 -7.5 0.0 74.0
Wed, Nov 14, 2018 23:00 -7.0 0.0 73.5
Wed, Nov 14, 2018 22:00 -6.7 0.0 72.3
Wed, Nov 14, 2018 21:00 -6.2 0.0 67.5
Wed, Nov 14, 2018 20:00 -5.7 0.0 64.8
Wed, Nov 14, 2018 19:00 -5.3 0.0 61.5
Wed, Nov 14, 2018 18:00 -5.0 0.0 60.5
Wed, Nov 14, 2018 17:00 -4.0 0.0 55.3
Wed, Nov 14, 2018 16:00 -2.8 0.0 50.5
Wed, Nov 14, 2018 15:00 -2.4 0.0 49.5
Wed, Nov 14, 2018 14:00 -2.0 0.0 45.8
Wed, Nov 14, 2018 13:00 -2.6 0.0 44.5
Wed, Nov 14, 2018 12:00 -2.8 0.0 45.5
Wed, Nov 14, 2018 11:00 -3.8 0.0 47.5
Wed, Nov 14, 2018 10:00 -5.0 0.0 49.3
Wed, Nov 14, 2018 09:00 -6.2 0.0 52.8
Wed, Nov 14, 2018 08:00 -6.8 0.0 54.8


asterix Register now to access more data! asterix